DLH342 EDDG-EPBY
Flight info
| Callsign | DLH342 |
|---|---|
| Flight time | 1h 5m |
| Altitude | 37000 |
| Route | OSNAD L980 HLZ DCT GILAS M994 DENKO N858 DEKUT DCT LUXUD |
| Aircraft | A321/M-DE2E3FGIJ1LORVWXYZ/HB2 |
Departure
| Time | 2026-05-04 21:02 |
|---|---|
| Airport | Münster Osnabrück Airport (EDDG) |
Arrival
| Time | 2026-05-04 22:07 |
|---|---|
| Airport | Ignacy Jan Paderewski Bydgoszcz Airport (EPBY) |
| Time | Latitude | Longitude | Altitude | Speed | Heading |
|---|---|---|---|---|---|
| 2026-05-04 20:47 | 52.13135 | 7.69211 | 140 ft | 0 kts | 198° |
| 2026-05-04 20:57 | 52.13134 | 7.69209 | 168 ft | 1 kts | 205° |
| 2026-05-04 20:57 | 52.13145 | 7.69181 | 168 ft | 6 kts | 313° |
| 2026-05-04 20:57 | 52.13187 | 7.69185 | 185 ft | 8 kts | 40° |
| 2026-05-04 20:57 | 52.13217 | 7.69282 | 168 ft | 11 kts | 72° |
| 2026-05-04 20:58 | 52.13269 | 7.69313 | 168 ft | 10 kts | 348° |
| 2026-05-04 20:58 | 52.13343 | 7.69272 | 168 ft | 13 kts | 340° |
| 2026-05-04 20:58 | 52.13435 | 7.69242 | 168 ft | 13 kts | 21° |
| 2026-05-04 20:58 | 52.13479 | 7.69383 | 168 ft | 16 kts | 74° |
| 2026-05-04 20:59 | 52.13518 | 7.69566 | 168 ft | 17 kts | 70° |
| 2026-05-04 20:59 | 52.13556 | 7.69742 | 168 ft | 18 kts | 70° |
| 2026-05-04 20:59 | 52.13596 | 7.69933 | 168 ft | 13 kts | 71° |
| 2026-05-04 20:59 | 52.13662 | 7.70041 | 168 ft | 14 kts | 11° |
| 2026-05-04 21:00 | 52.13762 | 7.70002 | 168 ft | 16 kts | 334° |
| 2026-05-04 21:00 | 52.13756 | 7.69862 | 168 ft | 11 kts | 250° |
| 2026-05-04 21:00 | 52.13753 | 7.69849 | 168 ft | 0 kts | 250° |
| 2026-05-04 21:01 | 52.13651 | 7.69366 | 169 ft | 85 kts | 251° |
| 2026-05-04 21:01 | 52.13382 | 7.68086 | 172 ft | 151 kts | 251° |
| 2026-05-04 21:02 | 52.13062 | 7.66408 | 784 ft | 151 kts | 254° |
| 2026-05-04 21:02 | 52.12739 | 7.64775 | 1537 ft | 152 kts | 249° |
| 2026-05-04 21:02 | 52.12374 | 7.63110 | 2115 ft | 163 kts | 249° |
| 2026-05-04 21:02 | 52.11964 | 7.61257 | 2426 ft | 185 kts | 249° |
| 2026-05-04 21:03 | 52.11505 | 7.59170 | 2706 ft | 208 kts | 249° |
| 2026-05-04 21:03 | 52.11004 | 7.56866 | 3078 ft | 226 kts | 250° |
| 2026-05-04 21:03 | 52.10426 | 7.54480 | 3848 ft | 228 kts | 237° |
| 2026-05-04 21:03 | 52.09233 | 7.52836 | 4570 ft | 232 kts | 200° |
| 2026-05-04 21:04 | 52.07640 | 7.52748 | 5026 ft | 235 kts | 159° |
| 2026-05-04 21:04 | 52.06174 | 7.54028 | 5856 ft | 237 kts | 149° |
| 2026-05-04 21:04 | 52.04810 | 7.55489 | 6632 ft | 240 kts | 141° |
| 2026-05-04 21:04 | 52.03789 | 7.57639 | 7347 ft | 246 kts | 114° |
| 2026-05-04 21:05 | 52.03440 | 7.60403 | 7844 ft | 263 kts | 88° |
| 2026-05-04 21:05 | 52.03927 | 7.63373 | 8223 ft | 282 kts | 67° |
| 2026-05-04 21:05 | 52.04692 | 7.66327 | 8935 ft | 286 kts | 67° |
| 2026-05-04 21:05 | 52.05458 | 7.69325 | 9710 ft | 288 kts | 68° |
| 2026-05-04 21:06 | 52.06227 | 7.72373 | 10245 ft | 300 kts | 68° |
| 2026-05-04 21:06 | 52.07042 | 7.75634 | 10397 ft | 323 kts | 68° |
| 2026-05-04 21:06 | 52.07901 | 7.79098 | 10803 ft | 334 kts | 69° |
| 2026-05-04 21:06 | 52.08774 | 7.82625 | 11402 ft | 339 kts | 69° |
| 2026-05-04 21:07 | 52.09661 | 7.86211 | 12042 ft | 343 kts | 69° |
| 2026-05-04 21:07 | 52.10555 | 7.89830 | 12649 ft | 348 kts | 69° |
| 2026-05-04 21:07 | 52.11460 | 7.93507 | 13251 ft | 353 kts | 69° |
| 2026-05-04 21:07 | 52.12376 | 7.97234 | 13856 ft | 357 kts | 70° |
| 2026-05-04 21:08 | 52.13303 | 8.01009 | 14412 ft | 361 kts | 70° |
| 2026-05-04 21:08 | 52.14241 | 8.04825 | 14963 ft | 365 kts | 70° |
| 2026-05-04 21:08 | 52.15188 | 8.08679 | 15515 ft | 369 kts | 70° |
| 2026-05-04 21:08 | 52.16142 | 8.12574 | 16083 ft | 373 kts | 70° |
| 2026-05-04 21:09 | 52.17104 | 8.16518 | 16629 ft | 377 kts | 70° |
| 2026-05-04 21:09 | 52.18064 | 8.20470 | 17169 ft | 380 kts | 70° |
| 2026-05-04 21:09 | 52.19043 | 8.24498 | 17709 ft | 384 kts | 70° |
| 2026-05-04 21:09 | 52.19855 | 8.28650 | 18218 ft | 385 kts | 80° |
| 2026-05-04 21:10 | 52.20208 | 8.32978 | 18678 ft | 386 kts | 89° |
| 2026-05-04 21:10 | 52.20368 | 8.37368 | 19144 ft | 389 kts | 89° |
| 2026-05-04 21:10 | 52.20528 | 8.41788 | 19589 ft | 393 kts | 89° |
| 2026-05-04 21:10 | 52.20692 | 8.46261 | 20036 ft | 397 kts | 89° |
| 2026-05-04 21:11 | 52.20858 | 8.50771 | 20487 ft | 400 kts | 89° |
| 2026-05-04 21:11 | 52.21023 | 8.55319 | 20939 ft | 404 kts | 89° |
| 2026-05-04 21:11 | 52.21189 | 8.59903 | 21382 ft | 407 kts | 89° |
| 2026-05-04 21:11 | 52.21356 | 8.64535 | 21799 ft | 411 kts | 89° |
| 2026-05-04 21:12 | 52.21520 | 8.69198 | 22235 ft | 414 kts | 89° |
| 2026-05-04 21:12 | 52.21683 | 8.73901 | 22662 ft | 417 kts | 89° |
| 2026-05-04 21:12 | 52.21842 | 8.78634 | 23081 ft | 420 kts | 90° |
| 2026-05-04 21:12 | 52.21999 | 8.83413 | 23501 ft | 423 kts | 90° |
| 2026-05-04 21:13 | 52.22156 | 8.88218 | 23849 ft | 426 kts | 90° |
| 2026-05-04 21:13 | 52.22313 | 8.93066 | 24174 ft | 430 kts | 90° |
| 2026-05-04 21:13 | 52.22468 | 8.97951 | 24494 ft | 433 kts | 90° |
| 2026-05-04 21:13 | 52.22625 | 9.02868 | 24829 ft | 437 kts | 90° |
| 2026-05-04 21:14 | 52.22784 | 9.07793 | 25162 ft | 440 kts | 90° |
| 2026-05-04 21:14 | 52.22945 | 9.12834 | 25491 ft | 443 kts | 90° |
| 2026-05-04 21:14 | 52.23101 | 9.17872 | 25823 ft | 446 kts | 90° |
| 2026-05-04 21:14 | 52.23252 | 9.22948 | 26150 ft | 450 kts | 90° |
| 2026-05-04 21:15 | 52.23403 | 9.28057 | 26467 ft | 453 kts | 90° |
| 2026-05-04 21:15 | 52.23557 | 9.33211 | 26776 ft | 456 kts | 90° |
| 2026-05-04 21:15 | 52.23713 | 9.38396 | 27091 ft | 459 kts | 90° |
| 2026-05-04 21:15 | 52.23870 | 9.43618 | 27409 ft | 462 kts | 90° |
| 2026-05-04 21:16 | 52.24021 | 9.48801 | 27718 ft | 465 kts | 90° |
| 2026-05-04 21:16 | 52.24174 | 9.54158 | 28045 ft | 468 kts | 90° |
| 2026-05-04 21:16 | 52.24321 | 9.59403 | 28362 ft | 471 kts | 91° |
| 2026-05-04 21:16 | 52.24467 | 9.64754 | 28661 ft | 474 kts | 91° |
| 2026-05-04 21:17 | 52.24613 | 9.70144 | 28964 ft | 477 kts | 91° |
| 2026-05-04 21:17 | 52.24758 | 9.75578 | 29263 ft | 480 kts | 91° |
| 2026-05-04 21:17 | 52.24897 | 9.81030 | 29560 ft | 483 kts | 91° |
| 2026-05-04 21:17 | 52.25049 | 9.86518 | 29848 ft | 486 kts | 88° |
| 2026-05-04 21:18 | 52.25533 | 9.92013 | 30099 ft | 492 kts | 80° |
| 2026-05-04 21:18 | 52.26236 | 9.97489 | 30374 ft | 494 kts | 80° |
| 2026-05-04 21:18 | 52.26938 | 10.02985 | 30649 ft | 495 kts | 80° |
| 2026-05-04 21:18 | 52.27636 | 10.08490 | 30905 ft | 497 kts | 80° |
| 2026-05-04 21:19 | 52.28334 | 10.14018 | 31153 ft | 498 kts | 80° |
| 2026-05-04 21:19 | 52.29032 | 10.19578 | 31396 ft | 500 kts | 80° |
| 2026-05-04 21:19 | 52.29728 | 10.25146 | 31649 ft | 500 kts | 81° |
| 2026-05-04 21:19 | 52.30418 | 10.30712 | 31982 ft | 499 kts | 81° |
| 2026-05-04 21:20 | 52.31102 | 10.36252 | 32363 ft | 498 kts | 81° |
| 2026-05-04 21:20 | 52.31787 | 10.41810 | 32642 ft | 499 kts | 81° |
| 2026-05-04 21:20 | 52.32470 | 10.47357 | 32906 ft | 498 kts | 80° |
| 2026-05-04 21:20 | 52.33151 | 10.52919 | 33240 ft | 497 kts | 80° |
| 2026-05-04 21:21 | 52.33825 | 10.58447 | 33586 ft | 496 kts | 80° |
| 2026-05-04 21:21 | 52.34496 | 10.63973 | 33911 ft | 495 kts | 80° |
| 2026-05-04 21:21 | 52.35162 | 10.69484 | 34197 ft | 494 kts | 80° |
| 2026-05-04 21:21 | 52.35820 | 10.74995 | 34473 ft | 493 kts | 81° |
| 2026-05-04 21:22 | 52.36462 | 10.80499 | 34755 ft | 491 kts | 81° |
| 2026-05-04 21:22 | 52.37028 | 10.86002 | 35038 ft | 490 kts | 83° |
| 2026-05-04 21:22 | 52.37515 | 10.91429 | 35309 ft | 488 kts | 84° |
| 2026-05-04 21:22 | 52.37967 | 10.96996 | 35588 ft | 487 kts | 84° |
| 2026-05-04 21:23 | 52.38395 | 11.02473 | 35859 ft | 485 kts | 84° |
| 2026-05-04 21:23 | 52.38826 | 11.07946 | 36141 ft | 484 kts | 84° |
| 2026-05-04 21:23 | 52.39264 | 11.13322 | 36403 ft | 482 kts | 83° |
| 2026-05-04 21:23 | 52.39720 | 11.18743 | 36662 ft | 481 kts | 83° |
| 2026-05-04 21:24 | 52.40185 | 11.24173 | 36905 ft | 480 kts | 83° |
| 2026-05-04 21:24 | 52.40651 | 11.29570 | 36975 ft | 479 kts | 83° |
| 2026-05-04 21:24 | 52.41560 | 11.40349 | 36982 ft | 477 kts | 83° |
| 2026-05-04 21:25 | 52.42439 | 11.51105 | 36965 ft | 476 kts | 84° |
| 2026-05-04 21:25 | 52.43314 | 11.61866 | 36982 ft | 476 kts | 84° |
| 2026-05-04 21:26 | 52.44188 | 11.72632 | 36976 ft | 477 kts | 84° |
| 2026-05-04 21:26 | 52.45047 | 11.83421 | 36990 ft | 477 kts | 84° |
| 2026-05-04 21:27 | 52.45891 | 11.94217 | 36998 ft | 478 kts | 84° |
| 2026-05-04 21:27 | 52.46725 | 12.05029 | 36984 ft | 478 kts | 84° |
| 2026-05-04 21:28 | 52.47554 | 12.15842 | 36984 ft | 478 kts | 84° |
| 2026-05-04 21:28 | 52.48380 | 12.26680 | 36989 ft | 479 kts | 84° |
| 2026-05-04 21:29 | 52.49193 | 12.37524 | 36990 ft | 479 kts | 84° |
| 2026-05-04 21:29 | 52.49991 | 12.48352 | 36992 ft | 479 kts | 84° |
| 2026-05-04 21:30 | 52.50784 | 12.59203 | 36984 ft | 479 kts | 84° |
| 2026-05-04 21:30 | 52.51565 | 12.70070 | 36977 ft | 479 kts | 84° |
| 2026-05-04 21:31 | 52.52721 | 12.86380 | 36984 ft | 479 kts | 84° |
| 2026-05-04 21:32 | 52.53484 | 12.97252 | 36987 ft | 479 kts | 84° |
| 2026-05-04 21:32 | 52.54231 | 13.08115 | 36985 ft | 479 kts | 84° |
| 2026-05-04 21:33 | 52.54936 | 13.18600 | 36992 ft | 479 kts | 84° |
| 2026-05-04 21:33 | 52.55663 | 13.29557 | 36997 ft | 479 kts | 85° |
| 2026-05-04 21:34 | 52.56363 | 13.40252 | 36997 ft | 479 kts | 85° |
| 2026-05-04 21:34 | 52.57076 | 13.51143 | 36997 ft | 479 kts | 85° |
| 2026-05-04 21:35 | 52.57774 | 13.61937 | 36990 ft | 479 kts | 85° |
| 2026-05-04 21:35 | 52.58428 | 13.72325 | 36991 ft | 479 kts | 85° |
| 2026-05-04 21:36 | 52.59100 | 13.83190 | 36991 ft | 479 kts | 85° |
| 2026-05-04 21:36 | 52.59759 | 13.93861 | 36994 ft | 479 kts | 85° |
| 2026-05-04 21:37 | 52.60412 | 14.04769 | 36995 ft | 479 kts | 85° |
| 2026-05-04 21:37 | 52.61053 | 14.15561 | 36982 ft | 479 kts | 85° |
| 2026-05-04 21:38 | 52.61694 | 14.26482 | 36990 ft | 480 kts | 85° |
| 2026-05-04 21:38 | 52.62293 | 14.36918 | 36990 ft | 480 kts | 85° |
| 2026-05-04 21:39 | 52.62902 | 14.47858 | 36994 ft | 480 kts | 85° |
| 2026-05-04 21:39 | 52.63785 | 14.56858 | 36992 ft | 480 kts | 76° |
| 2026-05-04 21:40 | 52.65379 | 14.67532 | 36999 ft | 480 kts | 76° |
| 2026-05-04 21:40 | 52.66943 | 14.78139 | 36998 ft | 480 kts | 76° |
| 2026-05-04 21:41 | 52.68493 | 14.88843 | 36992 ft | 480 kts | 77° |
| 2026-05-04 21:41 | 52.70025 | 14.99562 | 36998 ft | 480 kts | 77° |
| 2026-05-04 21:41 | 52.70789 | 15.04921 | 36788 ft | 480 kts | 77° |
| 2026-05-04 21:42 | 52.71550 | 15.10265 | 36275 ft | 478 kts | 77° |
| 2026-05-04 21:42 | 52.72309 | 15.15601 | 35659 ft | 478 kts | 77° |
| 2026-05-04 21:42 | 52.73069 | 15.20936 | 35109 ft | 476 kts | 77° |
| 2026-05-04 21:42 | 52.73821 | 15.26241 | 34556 ft | 474 kts | 77° |
| 2026-05-04 21:43 | 52.74566 | 15.31529 | 34071 ft | 472 kts | 77° |
| 2026-05-04 21:43 | 52.75304 | 15.36796 | 33502 ft | 470 kts | 77° |
| 2026-05-04 21:43 | 52.76034 | 15.42033 | 33002 ft | 466 kts | 77° |
| 2026-05-04 21:43 | 52.76758 | 15.47236 | 32473 ft | 463 kts | 77° |
| 2026-05-04 21:44 | 52.77473 | 15.52398 | 31955 ft | 459 kts | 77° |
| 2026-05-04 21:44 | 52.78179 | 15.57516 | 31448 ft | 456 kts | 77° |
| 2026-05-04 21:44 | 52.78880 | 15.62607 | 30941 ft | 452 kts | 78° |
| 2026-05-04 21:44 | 52.79575 | 15.67653 | 30441 ft | 449 kts | 78° |
| 2026-05-04 21:45 | 52.80264 | 15.72675 | 29924 ft | 447 kts | 78° |
| 2026-05-04 21:45 | 52.80940 | 15.77647 | 29470 ft | 441 kts | 78° |
| 2026-05-04 21:45 | 52.81650 | 15.82542 | 29019 ft | 435 kts | 73° |
| 2026-05-04 21:45 | 52.82702 | 15.87178 | 28628 ft | 428 kts | 66° |
| 2026-05-04 21:46 | 52.83857 | 15.91683 | 28216 ft | 422 kts | 66° |
| 2026-05-04 21:46 | 52.84976 | 15.96078 | 27818 ft | 417 kts | 67° |
| 2026-05-04 21:46 | 52.86091 | 16.00469 | 27438 ft | 412 kts | 67° |
| 2026-05-04 21:46 | 52.87193 | 16.04817 | 27055 ft | 407 kts | 67° |
| 2026-05-04 21:47 | 52.88277 | 16.09113 | 26690 ft | 402 kts | 67° |
| 2026-05-04 21:47 | 52.89345 | 16.13357 | 26313 ft | 397 kts | 67° |
| 2026-05-04 21:47 | 52.90400 | 16.17555 | 25951 ft | 393 kts | 67° |
| 2026-05-04 21:47 | 52.91444 | 16.21709 | 25569 ft | 388 kts | 67° |
| 2026-05-04 21:48 | 52.92478 | 16.25821 | 25193 ft | 385 kts | 67° |
| 2026-05-04 21:48 | 52.93502 | 16.29908 | 24817 ft | 382 kts | 67° |
| 2026-05-04 21:48 | 52.94516 | 16.33972 | 24426 ft | 380 kts | 67° |
| 2026-05-04 21:48 | 52.95519 | 16.38004 | 24046 ft | 378 kts | 67° |
| 2026-05-04 21:49 | 52.96520 | 16.42026 | 23659 ft | 376 kts | 67° |
| 2026-05-04 21:49 | 52.97514 | 16.46011 | 23215 ft | 372 kts | 67° |
| 2026-05-04 21:49 | 52.98500 | 16.49958 | 22832 ft | 368 kts | 68° |
| 2026-05-04 21:49 | 52.99473 | 16.53869 | 22435 ft | 365 kts | 68° |
| 2026-05-04 21:50 | 53.00433 | 16.57748 | 22039 ft | 362 kts | 68° |
| 2026-05-04 21:50 | 53.01384 | 16.61600 | 21648 ft | 359 kts | 68° |
| 2026-05-04 21:50 | 53.02327 | 16.65431 | 21258 ft | 357 kts | 68° |
| 2026-05-04 21:50 | 53.03261 | 16.69228 | 20874 ft | 355 kts | 68° |
| 2026-05-04 21:51 | 53.04190 | 16.73010 | 20470 ft | 353 kts | 68° |
| 2026-05-04 21:51 | 53.05112 | 16.76776 | 20094 ft | 350 kts | 68° |
| 2026-05-04 21:51 | 53.06026 | 16.80518 | 19718 ft | 349 kts | 68° |
| 2026-05-04 21:51 | 53.06936 | 16.84251 | 19324 ft | 348 kts | 68° |
| 2026-05-04 21:52 | 53.07841 | 16.87969 | 18951 ft | 346 kts | 68° |
| 2026-05-04 21:52 | 53.08740 | 16.91675 | 18564 ft | 344 kts | 68° |
| 2026-05-04 21:52 | 53.09634 | 16.95363 | 18152 ft | 343 kts | 68° |
| 2026-05-04 21:52 | 53.10524 | 16.99021 | 17750 ft | 340 kts | 68° |
| 2026-05-04 21:53 | 53.11255 | 17.02741 | 17378 ft | 337 kts | 78° |
| 2026-05-04 21:53 | 53.11560 | 17.06572 | 17001 ft | 332 kts | 90° |
| 2026-05-04 21:53 | 53.11522 | 17.10391 | 16643 ft | 328 kts | 94° |
| 2026-05-04 21:53 | 53.11458 | 17.14178 | 16272 ft | 326 kts | 94° |
| 2026-05-04 21:54 | 53.11397 | 17.17949 | 15906 ft | 325 kts | 94° |
| 2026-05-04 21:54 | 53.11336 | 17.21691 | 15541 ft | 323 kts | 93° |
| 2026-05-04 21:54 | 53.11277 | 17.25425 | 15176 ft | 322 kts | 93° |
| 2026-05-04 21:54 | 53.11219 | 17.29133 | 14819 ft | 320 kts | 93° |
| 2026-05-04 21:55 | 53.11158 | 17.32823 | 14464 ft | 318 kts | 93° |
| 2026-05-04 21:55 | 53.11096 | 17.36500 | 14109 ft | 317 kts | 93° |
| 2026-05-04 21:55 | 53.11030 | 17.40159 | 13747 ft | 316 kts | 93° |
| 2026-05-04 21:55 | 53.10961 | 17.43794 | 13370 ft | 314 kts | 93° |
| 2026-05-04 21:56 | 53.10890 | 17.47417 | 13017 ft | 312 kts | 93° |
| 2026-05-04 21:56 | 53.10817 | 17.51019 | 12669 ft | 310 kts | 93° |
| 2026-05-04 21:56 | 53.10951 | 17.54592 | 12321 ft | 310 kts | 81° |
| 2026-05-04 21:56 | 53.11468 | 17.58068 | 11971 ft | 309 kts | 75° |
| 2026-05-04 21:57 | 53.12047 | 17.61516 | 11617 ft | 310 kts | 75° |
| 2026-05-04 21:57 | 53.12620 | 17.64968 | 11271 ft | 309 kts | 75° |
| 2026-05-04 21:57 | 53.13186 | 17.68405 | 10921 ft | 307 kts | 75° |
| 2026-05-04 21:57 | 53.13740 | 17.71785 | 10580 ft | 305 kts | 75° |
| 2026-05-04 21:58 | 53.14294 | 17.75185 | 10236 ft | 304 kts | 75° |
| 2026-05-04 21:58 | 53.14847 | 17.78574 | 9894 ft | 302 kts | 75° |
| 2026-05-04 21:58 | 53.15395 | 17.81936 | 9530 ft | 300 kts | 75° |
| 2026-05-04 21:58 | 53.15940 | 17.85285 | 9186 ft | 298 kts | 75° |
| 2026-05-04 21:59 | 53.16478 | 17.88608 | 8839 ft | 296 kts | 75° |
| 2026-05-04 21:59 | 53.17011 | 17.91903 | 8508 ft | 293 kts | 75° |
| 2026-05-04 21:59 | 53.17538 | 17.95175 | 8178 ft | 291 kts | 75° |
| 2026-05-04 21:59 | 53.18059 | 17.98410 | 7867 ft | 288 kts | 75° |
| 2026-05-04 22:00 | 53.18420 | 18.01668 | 7524 ft | 285 kts | 83° |
| 2026-05-04 22:00 | 53.18692 | 18.04941 | 7167 ft | 284 kts | 83° |
| 2026-05-04 22:00 | 53.18963 | 18.08203 | 6813 ft | 284 kts | 83° |
| 2026-05-04 22:00 | 53.19231 | 18.11458 | 6462 ft | 283 kts | 83° |
| 2026-05-04 22:01 | 53.19498 | 18.14705 | 6097 ft | 282 kts | 83° |
| 2026-05-04 22:01 | 53.19765 | 18.17939 | 5719 ft | 281 kts | 83° |
| 2026-05-04 22:01 | 53.19845 | 18.21158 | 5374 ft | 273 kts | 102° |
| 2026-05-04 22:01 | 53.19184 | 18.23960 | 5057 ft | 249 kts | 130° |
| 2026-05-04 22:02 | 53.18012 | 18.25877 | 5009 ft | 228 kts | 152° |
| 2026-05-04 22:02 | 53.16657 | 18.26873 | 4950 ft | 201 kts | 171° |
| 2026-05-04 22:02 | 53.15341 | 18.27053 | 4820 ft | 181 kts | 189° |
| 2026-05-04 22:02 | 53.14171 | 18.26609 | 4692 ft | 165 kts | 206° |
| 2026-05-04 22:03 | 53.13207 | 18.25724 | 4555 ft | 153 kts | 220° |
| 2026-05-04 22:03 | 53.12472 | 18.24529 | 4391 ft | 144 kts | 235° |
| 2026-05-04 22:03 | 53.11960 | 18.23082 | 4027 ft | 151 kts | 248° |
| 2026-05-04 22:03 | 53.11649 | 18.21386 | 3758 ft | 150 kts | 258° |
| 2026-05-04 22:04 | 53.11499 | 18.19677 | 3396 ft | 152 kts | 263° |
| 2026-05-04 22:04 | 53.11351 | 18.17964 | 3075 ft | 146 kts | 263° |
| 2026-05-04 22:04 | 53.11228 | 18.16262 | 2609 ft | 150 kts | 263° |
| 2026-05-04 22:04 | 53.11075 | 18.14527 | 2152 ft | 152 kts | 264° |
| 2026-05-04 22:05 | 53.10932 | 18.12809 | 1831 ft | 147 kts | 264° |
| 2026-05-04 22:05 | 53.10799 | 18.11124 | 1648 ft | 146 kts | 265° |
| 2026-05-04 22:05 | 53.10657 | 18.09448 | 1493 ft | 147 kts | 264° |
| 2026-05-04 22:05 | 53.10519 | 18.07796 | 1285 ft | 145 kts | 263° |
| 2026-05-04 22:06 | 53.10385 | 18.06134 | 1121 ft | 145 kts | 265° |
| 2026-05-04 22:06 | 53.10244 | 18.04475 | 889 ft | 143 kts | 262° |
| 2026-05-04 22:06 | 53.10105 | 18.02839 | 681 ft | 141 kts | 263° |
| 2026-05-04 22:06 | 53.09972 | 18.01213 | 491 ft | 142 kts | 262° |
| 2026-05-04 22:07 | 53.09830 | 17.99579 | 279 ft | 144 kts | 263° |
| 2026-05-04 22:07 | 53.09709 | 17.98073 | 224 ft | 111 kts | 262° |
| 2026-05-04 22:07 | 53.09630 | 17.97158 | 223 ft | 44 kts | 262° |
| 2026-05-04 22:07 | 53.09594 | 17.96864 | 226 ft | 13 kts | 240° |
| 2026-05-04 22:08 | 53.09518 | 17.96841 | 224 ft | 12 kts | 172° |
| 2026-05-04 22:08 | 53.09428 | 17.96863 | 224 ft | 13 kts | 171° |
| 2026-05-04 22:08 | 53.09354 | 17.96903 | 224 ft | 9 kts | 123° |
| 2026-05-04 22:08 | 53.09355 | 17.97018 | 225 ft | 11 kts | 80° |
| 2026-05-04 22:09 | 53.09366 | 17.97156 | 224 ft | 13 kts | 82° |
| 2026-05-04 22:09 | 53.09380 | 17.97316 | 224 ft | 15 kts | 82° |
| 2026-05-04 22:09 | 53.09395 | 17.97497 | 225 ft | 17 kts | 82° |
| 2026-05-04 22:09 | 53.09412 | 17.97698 | 224 ft | 18 kts | 82° |
| 2026-05-04 22:10 | 53.09429 | 17.97908 | 224 ft | 16 kts | 82° |
| 2026-05-04 22:10 | 53.09444 | 17.98099 | 224 ft | 17 kts | 82° |
| 2026-05-04 22:10 | 53.09462 | 17.98308 | 224 ft | 19 kts | 82° |
| 2026-05-04 22:10 | 53.09477 | 17.98488 | 224 ft | 15 kts | 82° |
| 2026-05-04 22:11 | 53.09493 | 17.98674 | 224 ft | 17 kts | 82° |
| 2026-05-04 22:11 | 53.09511 | 17.98880 | 226 ft | 19 kts | 82° |
| 2026-05-04 22:11 | 53.09529 | 17.99105 | 224 ft | 20 kts | 83° |
| 2026-05-04 22:11 | 53.09542 | 17.99290 | 224 ft | 15 kts | 81° |
| 2026-05-04 22:12 | 53.09558 | 17.99438 | 224 ft | 9 kts | 81° |
| 2026-05-04 22:12 | 53.09567 | 17.99552 | 224 ft | 11 kts | 83° |
| 2026-05-04 22:12 | 53.09550 | 17.99668 | 224 ft | 11 kts | 144° |
| 2026-05-04 22:12 | 53.09486 | 17.99689 | 224 ft | 7 kts | 173° |
| 2026-05-04 22:13 | 53.09458 | 17.99696 | 224 ft | 0 kts | 173° |